East Orange, NJ (07018)

1:42 AM EDT on April 27, 2015 (GMT -0400)
University Heights | | Change Station
CLOSE
Current Station
Personal Weather Station
Location: Newark, NJ
Elevation: 177 ft
Nearby Weather Stations

Elev 177 ft 40.74 °N, 74.19 °W | Updated 17 seconds ago

Partly Cloudy
Partly Cloudy
48.6 °F
Feels Like 44 °F
N
10.4
Wind Variable Wind from WSW
Gusts 11.0 mph

Today
High -- | Low -- °F
--% Chance of Precip.
Yesterday
High -- | Low -- °F
Precip. -- in
6:01 AM 7:48 PM
First Quarter, 62% visible
Pressure 29.70 in
Visibility 10.0 miles
Clouds Few 8000 ft
Windchill 44 °F
Dew Point 35 °F
Humidity 59%
Rainfall 0.00 in
Snow Depth Not available.
UV 0 out of 12
Pollen 10.20 out of 12
Air Quality Not available.
Flu Activity Local Activity
METAR KEWR 270451Z 29005KT 10SM FEW080 09/M01 A2970 RMK AO2 SLP055 T00941011 401720061

More Conditions Fewer Conditions

Pressure 29.70 in
Visibility 10.0 miles
Clouds Few 8000 ft
Windchill 44 °F
Dew Point 35 °F
Humidity 59%
Rainfall 0.00 in
Snow Depth Not available.
UV 0 out of 12
Pollen 10.20 out of 12
Air Quality Not available.
Flu Activity Local Activity
METAR KEWR 270451Z 29005KT 10SM FEW080 09/M01 A2970 RMK AO2 SLP055 T00941011 401720061

More Conditions Fewer Conditions

The full scope of the disaster following a powerful 7.8-magnitude earthquake in Nepal may not come into view for days, but global charities are already sending emergency aid. Click to see how you can help.

10-Day Weather Forecast

Almanac

Astronomy

Apr. 27, 2015 Rise Set
Actual Time
Civil Twilight
Nautical Twilight
Astronomical Twilight
Moon
Length of Visible Light
Length of Day
Tomorrow will be .
, % of the Moon is Illuminated

Today's Extremes

State Highs State Lows

Community

WunderPhotos

Upload Photos

1,817,267 photos uploaded!

WunderBlogs® & News

Nearby

Air Quality

  Air Quality AQ Index Pollutant
Not available.

Snow Depth

Station Depth Elevation

Earthquake Activity

City Distance Mag. Time & Date
Minimum magnitude displayed is 2.5.

Coastal Water Temperatures

Place Temperature

Stations

Nearby Weather Stations

Station Location Temp. Windchill Dew Point Humidity Wind Precip. Elev Updated Type